Domov               UVHVVR             MKGP            O straneh              
ZDRAVSTVENO VARSTVO RASTLIN
  MREŽA AGROMET. POSTAJ
 ► PROGNOSTIČNA OBVESTILA
AGROMETEOROLOŠKI PODATKI -
ARSO
OBVLADOVANJE TVEGANJ ZARADI
NEUGODNIH VREMENSKIH RAZMER
  ► NARAVNE NESREČE
  ► SUŠA/MOČA
  ► NAMAKANJE
  ► ŽLED (gozdarstvo)
KARTOGRAFSKI PRIKAZI
SPLETNE POVEZAVE
PROJEKTI IN PUBLIKACIJE

AGROMETEOROLOŠKA MREŽA: VREMENSKE POSTAJE IN FENOLOŠKA OPAZOVANJA

Pregled podatkov za lokacijo Sebeborci, meteorološka postaja 25165

Pregled senzorjev na lokaciji

ID Ime Zadnja
vrednost
Datum
zadnje
spremembe
Tip
senzorja
2013 Omočenost lista (U) 0 U 19.7.2018 05:30 A730WET
2012 Padavine (mm) 0 mm 19.7.2018 05:30 Generic 0.2 mm
2014 Relativna vlaga 2 m (% RH) 82,49 % RH 19.7.2018 05:30 Generic 0 - 100 %
2015 Temperatura 2 m (°C) 16,8 °C 19.7.2018 05:30 Generic -40 - +60 °C

Pregled podatkov zadnjih 24 ur

Zap.
št.
Datum in čas Sebeborci
Omočenost
lista
Padavine Relativna
vlaga
2
m
Temperatura
2
m
1 19.7.2018 05:30
2 19.7.2018 05:00
3 19.7.2018 04:30 0 0 82,5 16,8
4 19.7.2018 04:00 0 0 78,1 17,3
5 19.7.2018 03:30 0 0 76,2 18
6 19.7.2018 03:00 0 0 69,7 18,4
7 19.7.2018 02:30 0 0 70,5 18,5
8 19.7.2018 02:00 0 0 69 18,8
9 19.7.2018 01:30 0 0 69 18,9
10 19.7.2018 01:00 0 0 72,7 18,9
11 19.7.2018 00:30 0 0 69,1 19,2
12 19.7.2018 00:00 0 0 69,3 19,2
13 18.7.2018 23:30 0 0 68,9 19,3
14 18.7.2018 23:00 0 0 69,6 19,4
15 18.7.2018 22:30 0 0 69,8 19,2
16 18.7.2018 22:00 0 0 73,1 19,3
17 18.7.2018 21:30 0 0 70,2 19,6
18 18.7.2018 21:00 0 0 69,1 20,1
19 18.7.2018 20:30 0 0 65,3 20,7
20 18.7.2018 20:00 0 0 59,5 21,2
21 18.7.2018 19:30 0 0 58,4 21,6
22 18.7.2018 19:00 0 0 55,7 22,4
23 18.7.2018 18:30 0 0 52,1 23,3
24 18.7.2018 18:00 0 0 48,7 25
25 18.7.2018 17:30 0 0 32,4 28,1
26 18.7.2018 17:00 0 0 32,1 29,2
27 18.7.2018 16:30 0 0 31,1 29,2
28 18.7.2018 16:00 0 0 29,5 29,8
29 18.7.2018 15:30 0 0 28 29,7
30 18.7.2018 15:00 0 0 27,4 29,8
31 18.7.2018 14:30 0 0 26,9 29,6
32 18.7.2018 14:00 0 0 26,1 29,5
33 18.7.2018 13:30 0 0 28,6 29,2
34 18.7.2018 13:00 0 0 33,2 29,2
35 18.7.2018 12:30 0 0 38,8 27,4
36 18.7.2018 12:00 0 0 32,5 29,2
37 18.7.2018 11:30 0 0 33,4 28,5
38 18.7.2018 11:00 0 0 35,3 28,2
39 18.7.2018 10:30 0 0 36,4 27,9
40 18.7.2018 10:00 0 0 35,6 27
41 18.7.2018 09:30 0 0 37,4 26,5
42 18.7.2018 09:00 0 0 42,2 25,7
43 18.7.2018 08:30 0 0 47,2 24,6
44 18.7.2018 08:00 0 0 54,7 23
45 18.7.2018 07:30 0 0 58,5 21,1
46 18.7.2018 07:00 0 0 63 19,2
47 18.7.2018 06:30 0 0 66,1 17,8
48 18.7.2018 06:00 0 0 69,6 16,3
© 2011 Ministrstvo za kmetijstvo, gozdarstvo in prehrano. Vse pravice pridržane.